Kaisei Maru — JD3114 — position and weather

sailwx.info

Track history (hours):
 
Tides and Currents Weather Stations Pressure Air Temp Water Temp Dewpoint Dewpoint Depression Visibility Wind Speed Wind Dir Waves Ship Positions

Kaisei Maru

Last reported at 2016-Aug-24 11:31 UTC. Time now 2016-Aug-26 08:31 UTC.
Position N 34°37' E 135°02'.

Length 52 m; draft 3.6 m.

Type: Tanker. MMSI: 431001837.

Date/timePositionNaut miles runAvg speedWind from/ knotsBaromVisibWave heightAir tempDewpointWater temp
2016-Aug-24 11:31N 34°37' E 135°02'8 8.5
2016-Aug-24 10:33N 34°32' E 135°11'9 9.5
2016-Aug-24 09:33N 34°26' E 135°19'0 0.0
2016-Aug-24 08:33N 34°26' E 135°19'0 0.0
2016-Aug-24 07:33N 34°26' E 135°19'0 0.0
2016-Aug-24 06:33N 34°26' E 135°19'0 0.0
2016-Aug-24 04:22N 34°26' E 135°19'6 7.2
2016-Aug-24 03:32N 34°32' E 135°18'1010.4
2016-Aug-24 02:33N 34°41' E 135°13'1 0.7
2016-Aug-24 01:33N 34°41' E 135°12'0 0.0
2016-Aug-24 00:33N 34°41' E 135°12'0 0.0
2016-Aug-23 23:32N 34°41' E 135°12'0 0.0
2016-Aug-23 22:33N 34°41' E 135°12'0 0.0
2016-Aug-23 21:33N 34°41' E 135°12'0 0.0
2016-Aug-23 20:33N 34°41' E 135°12'0 0.0
2016-Aug-23 19:33N 34°41' E 135°12'0 0.0
2016-Aug-23 18:33N 34°41' E 135°12'0 0.0
2016-Aug-23 17:33N 34°41' E 135°12'0 0.0
2016-Aug-23 16:33N 34°41' E 135°12'0 0.0
2016-Aug-23 15:33N 34°41' E 135°12'0 0.0
2016-Aug-23 14:33N 34°41' E 135°12'0 0.0
2016-Aug-23 13:33N 34°41' E 135°12'0 0.0
2016-Aug-23 12:33N 34°41' E 135°12'0 0.0
2016-Aug-23 11:33N 34°41' E 135°12'0 0.0
2016-Aug-23 10:33N 34°41' E 135°12'0 0.0
2016-Aug-23 09:33N 34°41' E 135°12'0 0.0
2016-Aug-23 08:33N 34°41' E 135°12'0 0.0
2016-Aug-23 07:33N 34°41' E 135°12'0 0.0
2016-Aug-23 06:33N 34°41' E 135°12'0 0.0
2016-Aug-23 05:33N 34°41' E 135°12'0 0.0
2016-Aug-23 04:33N 34°41' E 135°12'0 0.0
2016-Aug-23 03:33N 34°41' E 135°12'0 0.0
2016-Aug-23 02:33N 34°41' E 135°12'1 0.6
2016-Aug-23 01:33N 34°41' E 135°13'3 3.2
2016-Aug-23 00:33N 34°42' E 135°17'0 0.0
2016-Aug-22 23:33N 34°42' E 135°17'1 1.2
2016-Aug-22 22:32N 34°42' E 135°18'0 0.0
2016-Aug-22 21:33N 34°42' E 135°18'8 7.6
2016-Aug-22 20:33N 34°36' E 135°12'  
2016-Aug-18 05:32N 34°11' E 134°60'1411.1
2016-Aug-18 04:15N 34°22' E 135°10'911.0
2016-Aug-18 03:28N 34°26' E 135°19'0 0.1
2016-Aug-17 23:15N 34°26' E 135°19'5 6.9
2016-Aug-17 22:33N 34°30' E 135°17'1010.5
2016-Aug-17 21:33N 34°40' E 135°15'2 2.0
2016-Aug-17 20:33N 34°41' E 135°12'0 0.0
2016-Aug-17 19:33N 34°41' E 135°12'0 0.0
2016-Aug-17 18:33N 34°41' E 135°12'0 0.0
2016-Aug-17 17:33N 34°41' E 135°12'0 0.0
2016-Aug-17 16:33N 34°41' E 135°12'0 0.0
2016-Aug-17 15:33N 34°41' E 135°12'0 0.0
2016-Aug-17 14:33N 34°41' E 135°12'0 0.0
2016-Aug-17 13:33N 34°41' E 135°12'0 0.0
2016-Aug-17 12:33N 34°41' E 135°12'0 0.0
2016-Aug-17 11:33N 34°41' E 135°12'0 0.0
2016-Aug-17 10:33N 34°41' E 135°12'0 0.0
2016-Aug-17 09:33N 34°41' E 135°12'0 0.0
2016-Aug-17 08:33N 34°41' E 135°12'9 9.0
2016-Aug-17 07:33N 34°41' E 135°23'1 0.9
2016-Aug-17 06:33N 34°42' E 135°24'0 0.0
2016-Aug-17 05:33N 34°42' E 135°24'0 0.0
2016-Aug-17 04:33N 34°42' E 135°24'0 0.0
2016-Aug-17 03:33N 34°42' E 135°24'0 0.0
2016-Aug-17 02:33N 34°42' E 135°24'0 0.0
2016-Aug-17 01:33N 34°42' E 135°24'0 0.0
2016-Aug-17 00:33N 34°42' E 135°24'0 0.0
2016-Aug-16 23:33N 34°42' E 135°24'3 2.5
2016-Aug-16 22:33N 34°41' E 135°21'7 7.5
2016-Aug-16 21:33N 34°41' E 135°12'0 0.0
2016-Aug-16 20:33N 34°41' E 135°12'0 0.0
2016-Aug-16 19:33N 34°41' E 135°12'0 0.0
2016-Aug-16 18:33N 34°41' E 135°12'0 0.0
2016-Aug-16 17:33N 34°41' E 135°12'0 0.0
2016-Aug-16 16:33N 34°41' E 135°12'0 0.0
2016-Aug-16 15:33N 34°41' E 135°12'0 0.0
2016-Aug-16 14:33N 34°41' E 135°12'0 0.0
2016-Aug-16 13:33N 34°41' E 135°12'0 0.0
2016-Aug-16 12:33N 34°41' E 135°12'0 0.0
2016-Aug-16 11:33N 34°41' E 135°12'0 0.0
2016-Aug-16 10:33N 34°41' E 135°12'0 0.0
2016-Aug-16 09:33N 34°41' E 135°12'0 0.0
2016-Aug-16 08:33N 34°41' E 135°12'0 0.0
2016-Aug-16 07:33N 34°41' E 135°12'0 0.0
2016-Aug-16 04:33N 34°41' E 135°12'0 0.0
2016-Aug-16 03:33N 34°41' E 135°12'0 0.0
2016-Aug-16 02:33N 34°41' E 135°12'0 0.0
2016-Aug-16 01:33N 34°41' E 135°12'0 0.0
2016-Aug-16 00:33N 34°41' E 135°12'0 0.0
2016-Aug-15 23:33N 34°41' E 135°12'0 0.0
2016-Aug-15 22:33N 34°41' E 135°12'0 0.0
2016-Aug-15 21:33N 34°41' E 135°12'0 0.0
2016-Aug-15 20:33N 34°41' E 135°12'0 0.0
2016-Aug-15 19:33N 34°41' E 135°12'0 0.0
2016-Aug-15 18:33N 34°41' E 135°12'0 0.0
2016-Aug-15 17:33N 34°41' E 135°12'0 0.0
2016-Aug-15 16:33N 34°41' E 135°12'2 1.8
2016-Aug-15 15:33N 34°40' E 135°14'1010.2
2016-Aug-15 14:33N 34°30' E 135°13'2310.3
2016-Aug-15 12:20N 34°10' E 134°59'  
Track history (hours):
 
Tides and Currents Weather Stations Pressure Air Temp Water Temp Dewpoint Dewpoint Depression Visibility Wind Speed Wind Dir Waves Ship Positions

Kaisei Maru

Last reported at 2016-Aug-24 11:31 UTC. Time now 2016-Aug-26 08:31 UTC.
Position N 34°37' E 135°02'.

Length 52 m; draft 3.6 m.

Type: Tanker. MMSI: 431001837.

Date/timePositionNaut miles runAvg speedWind from/ knotsBaromVisibWave heightAir tempDewpointWater temp
2016-Aug-24 11:31N 34°37' E 135°02'8 8.5
2016-Aug-24 10:33N 34°32' E 135°11'9 9.5
2016-Aug-24 09:33N 34°26' E 135°19'0 0.0
2016-Aug-24 08:33N 34°26' E 135°19'0 0.0
2016-Aug-24 07:33N 34°26' E 135°19'0 0.0
2016-Aug-24 06:33N 34°26' E 135°19'0 0.0
2016-Aug-24 04:22N 34°26' E 135°19'6 7.2
2016-Aug-24 03:32N 34°32' E 135°18'1010.4
2016-Aug-24 02:33N 34°41' E 135°13'1 0.7
2016-Aug-24 01:33N 34°41' E 135°12'0 0.0
2016-Aug-24 00:33N 34°41' E 135°12'0 0.0
2016-Aug-23 23:32N 34°41' E 135°12'0 0.0
2016-Aug-23 22:33N 34°41' E 135°12'0 0.0
2016-Aug-23 21:33N 34°41' E 135°12'0 0.0
2016-Aug-23 20:33N 34°41' E 135°12'0 0.0
2016-Aug-23 19:33N 34°41' E 135°12'0 0.0
2016-Aug-23 18:33N 34°41' E 135°12'0 0.0
2016-Aug-23 17:33N 34°41' E 135°12'0 0.0
2016-Aug-23 16:33N 34°41' E 135°12'0 0.0
2016-Aug-23 15:33N 34°41' E 135°12'0 0.0
2016-Aug-23 14:33N 34°41' E 135°12'0 0.0
2016-Aug-23 13:33N 34°41' E 135°12'0 0.0
2016-Aug-23 12:33N 34°41' E 135°12'0 0.0
2016-Aug-23 11:33N 34°41' E 135°12'0 0.0
2016-Aug-23 10:33N 34°41' E 135°12'0 0.0
2016-Aug-23 09:33N 34°41' E 135°12'0 0.0
2016-Aug-23 08:33N 34°41' E 135°12'0 0.0
2016-Aug-23 07:33N 34°41' E 135°12'0 0.0
2016-Aug-23 06:33N 34°41' E 135°12'0 0.0
2016-Aug-23 05:33N 34°41' E 135°12'0 0.0
2016-Aug-23 04:33N 34°41' E 135°12'0 0.0
2016-Aug-23 03:33N 34°41' E 135°12'0 0.0
2016-Aug-23 02:33N 34°41' E 135°12'1 0.6
2016-Aug-23 01:33N 34°41' E 135°13'3 3.2
2016-Aug-23 00:33N 34°42' E 135°17'0 0.0
2016-Aug-22 23:33N 34°42' E 135°17'1 1.2
2016-Aug-22 22:32N 34°42' E 135°18'0 0.0
2016-Aug-22 21:33N 34°42' E 135°18'8 7.6
2016-Aug-22 20:33N 34°36' E 135°12'  
2016-Aug-18 05:32N 34°11' E 134°60'1411.1
2016-Aug-18 04:15N 34°22' E 135°10'911.0
2016-Aug-18 03:28N 34°26' E 135°19'0 0.1
2016-Aug-17 23:15N 34°26' E 135°19'5 6.9
2016-Aug-17 22:33N 34°30' E 135°17'1010.5
2016-Aug-17 21:33N 34°40' E 135°15'2 2.0
2016-Aug-17 20:33N 34°41' E 135°12'0 0.0
2016-Aug-17 19:33N 34°41' E 135°12'0 0.0
2016-Aug-17 18:33N 34°41' E 135°12'0 0.0
2016-Aug-17 17:33N 34°41' E 135°12'0 0.0
2016-Aug-17 16:33N 34°41' E 135°12'0 0.0
2016-Aug-17 15:33N 34°41' E 135°12'0 0.0
2016-Aug-17 14:33N 34°41' E 135°12'0 0.0
2016-Aug-17 13:33N 34°41' E 135°12'0 0.0
2016-Aug-17 12:33N 34°41' E 135°12'0 0.0
2016-Aug-17 11:33N 34°41' E 135°12'0 0.0
2016-Aug-17 10:33N 34°41' E 135°12'0 0.0
2016-Aug-17 09:33N 34°41' E 135°12'0 0.0
2016-Aug-17 08:33N 34°41' E 135°12'9 9.0
2016-Aug-17 07:33N 34°41' E 135°23'1 0.9
2016-Aug-17 06:33N 34°42' E 135°24'0 0.0
2016-Aug-17 05:33N 34°42' E 135°24'0 0.0
2016-Aug-17 04:33N 34°42' E 135°24'0 0.0
2016-Aug-17 03:33N 34°42' E 135°24'0 0.0
2016-Aug-17 02:33N 34°42' E 135°24'0 0.0
2016-Aug-17 01:33N 34°42' E 135°24'0 0.0
2016-Aug-17 00:33N 34°42' E 135°24'0 0.0
2016-Aug-16 23:33N 34°42' E 135°24'3 2.5
2016-Aug-16 22:33N 34°41' E 135°21'7 7.5
2016-Aug-16 21:33N 34°41' E 135°12'0 0.0
2016-Aug-16 20:33N 34°41' E 135°12'0 0.0
2016-Aug-16 19:33N 34°41' E 135°12'0 0.0
2016-Aug-16 18:33N 34°41' E 135°12'0 0.0
2016-Aug-16 17:33N 34°41' E 135°12'0 0.0
2016-Aug-16 16:33N 34°41' E 135°12'0 0.0
2016-Aug-16 15:33N 34°41' E 135°12'0 0.0
2016-Aug-16 14:33N 34°41' E 135°12'0 0.0
2016-Aug-16 13:33N 34°41' E 135°12'0 0.0
2016-Aug-16 12:33N 34°41' E 135°12'0 0.0
2016-Aug-16 11:33N 34°41' E 135°12'0 0.0
2016-Aug-16 10:33N 34°41' E 135°12'0 0.0
2016-Aug-16 09:33N 34°41' E 135°12'0 0.0
2016-Aug-16 08:33N 34°41' E 135°12'0 0.0
2016-Aug-16 07:33N 34°41' E 135°12'0 0.0
2016-Aug-16 04:33N 34°41' E 135°12'0 0.0
2016-Aug-16 03:33N 34°41' E 135°12'0 0.0
2016-Aug-16 02:33N 34°41' E 135°12'0 0.0
2016-Aug-16 01:33N 34°41' E 135°12'0 0.0
2016-Aug-16 00:33N 34°41' E 135°12'0 0.0
2016-Aug-15 23:33N 34°41' E 135°12'0 0.0
2016-Aug-15 22:33N 34°41' E 135°12'0 0.0
2016-Aug-15 21:33N 34°41' E 135°12'0 0.0
2016-Aug-15 20:33N 34°41' E 135°12'0 0.0
2016-Aug-15 19:33N 34°41' E 135°12'0 0.0
2016-Aug-15 18:33N 34°41' E 135°12'0 0.0
2016-Aug-15 17:33N 34°41' E 135°12'0 0.0
2016-Aug-15 16:33N 34°41' E 135°12'2 1.8
2016-Aug-15 15:33N 34°40' E 135°14'1010.2
2016-Aug-15 14:33N 34°30' E 135°13'2310.3
2016-Aug-15 12:20N 34°10' E 134°59'  

Dump ship's entire track history